Time;durP1;ratioP1;P1;durP2;ratioP2;P2;SDS_P1;SDS_P2;PMS_P1;PMS_P2;Temp;Humidity;BMP_temperature;BMP_pressure;BME280_temperature;BME280_humidity;BME280_pressure;Samples;Min_cycle;Max_cycle;Signal;HPM_P1;HPM_P2
2022/10/25 00:00:40;;;;;;;50.45;47.58;;;;;;;15.81;73.16;101496.44;5016902;28;102526;-58
2022/10/25 00:03:09;;;;;;;55.97;52.92;;;;;;;15.80;72.67;101487.41;5033279;27;104018;-58
2022/10/25 00:05:38;;;;;;;58.45;55.28;;;;;;;15.80;73.03;101486.56;5034269;27;102093;-58
2022/10/25 00:08:05;;;;;;;58.40;55.22;;;;;;;15.80;72.85;101481.09;5035767;27;102193;-58
2022/10/25 00:10:33;;;;;;;62.80;59.42;;;;;;;15.81;72.92;101485.47;5036394;27;102470;-58
2022/10/25 00:12:59;;;;;;;53.67;50.58;;;;;;;15.79;72.86;101473.94;5033495;27;103992;-58
2022/10/25 00:15:26;;;;;;;55.88;52.50;;;;;;;15.80;72.83;101470.13;5035762;27;103734;-58
2022/10/25 00:17:52;;;;;;;57.72;54.53;;;;;;;15.79;72.83;101476.69;5024054;27;102365;-58
2022/10/25 00:20:20;;;;;;;55.75;52.45;;;;;;;15.79;72.80;101474.75;5019791;27;102610;-58
2022/10/25 00:22:46;;;;;;;59.80;56.28;;;;;;;15.81;72.79;101471.75;5015351;28;103354;-58
2022/10/25 00:25:13;;;;;;;55.60;52.50;;;;;;;15.80;73.13;101470.94;5023037;27;102571;-57
2022/10/25 00:27:40;;;;;;;56.83;53.70;;;;;;;15.80;72.93;101464.63;5035216;27;102254;-57
2022/10/25 00:30:08;;;;;;;57.05;53.70;;;;;;;15.80;73.04;101459.13;5031655;27;102273;-58
2022/10/25 00:32:35;;;;;;;52.97;49.92;;;;;;;15.80;73.26;101448.16;5025937;27;104084;-58
2022/10/25 00:35:03;;;;;;;50.55;47.70;;;;;;;15.79;73.03;101449.25;5019919;27;102587;-58
2022/10/25 00:37:31;;;;;;;57.40;54.22;;;;;;;15.79;72.89;101446.50;5018511;28;102451;-58
2022/10/25 00:39:57;;;;;;;55.15;52.13;;;;;;;15.79;72.85;101443.75;5022064;27;103189;-58
2022/10/25 00:42:25;;;;;;;50.13;47.17;;;;;;;15.78;73.02;101444.88;5025839;27;104139;-58
2022/10/25 00:44:54;;;;;;;62.53;59.03;;;;;;;15.79;73.21;101449.25;5008666;27;102415;-58
2022/10/25 00:47:41;;;;;;;54.97;51.88;;;;;;;15.80;73.33;101442.66;4995212;28;102008;-58
2022/10/25 00:50:31;;;;;;;52.63;49.63;;;;;;;15.80;72.83;101442.66;4997137;28;102503;-58
2022/10/25 00:53:05;;;;;;;54.13;51.10;;;;;;;15.79;72.93;101435.53;5014145;28;103872;-58
2022/10/25 00:55:32;;;;;;;57.10;54.00;;;;;;;15.78;73.33;101437.44;5015378;28;102259;-57
2022/10/25 00:58:02;;;;;;;61.15;57.78;;;;;;;15.79;73.01;101424.53;5014324;28;102315;-58
2022/10/25 01:00:29;;;;;;;58.00;54.63;;;;;;;15.79;73.10;101428.09;5000380;28;102133;-57
2022/10/25 01:02:56;;;;;;;54.47;51.30;;;;;;;15.78;73.00;101422.91;5033939;27;103984;-58
2022/10/25 01:05:22;;;;;;;56.83;53.63;;;;;;;15.80;73.42;101426.19;5013418;28;102771;-59
2022/10/25 01:07:50;;;;;;;52.08;49.15;;;;;;;15.78;73.11;101417.44;5013789;28;101975;-58
2022/10/25 01:10:18;;;;;;;60.15;56.75;;;;;;;15.80;73.38;101415.22;5013132;28;102636;-58
2022/10/25 01:12:44;;;;;;;58.13;54.90;;;;;;;15.79;73.04;101413.56;5005728;28;103867;-58
2022/10/25 01:15:12;;;;;;;57.30;54.08;;;;;;;15.78;73.49;101412.75;5000161;28;102097;-58
2022/10/25 01:17:49;;;;;;;59.95;56.42;;;;;;;15.79;72.97;101414.38;5014754;28;102248;-58
2022/10/25 01:20:39;;;;;;;62.80;59.35;;;;;;;15.79;73.46;101408.06;5001416;28;102480;-58
2022/10/25 01:23:23;;;;;;;56.25;53.08;;;;;;;15.80;73.01;101416.03;4994384;28;104140;-58
2022/10/25 01:26:19;;;;;;;56.40;53.08;;;;;;;15.80;73.25;101417.97;4999080;28;102649;-58
2022/10/25 01:29:07;;;;;;;61.78;58.30;;;;;;;15.81;73.04;101411.38;4996017;28;102158;-58
2022/10/25 01:31:41;;;;;;;53.53;50.55;;;;;;;15.81;73.03;101411.38;4995121;28;102186;-58
2022/10/25 01:34:13;;;;;;;57.97;54.80;;;;;;;15.80;73.06;101398.75;4994243;28;103852;-58
2022/10/25 01:36:45;;;;;;;60.85;57.42;;;;;;;15.80;73.30;101398.75;5005826;28;102216;-61
2022/10/25 01:39:16;;;;;;;56.05;52.88;;;;;;;15.78;73.35;101404.50;5001906;28;102824;-58
2022/10/25 01:41:55;;;;;;;57.22;53.97;;;;;;;15.80;73.38;101391.34;5016025;28;102491;-58
2022/10/25 01:44:35;;;;;;;58.47;55.13;;;;;;;15.80;73.20;101387.78;5013965;28;103972;-58
2022/10/25 01:47:07;;;;;;;58.40;55.08;;;;;;;15.79;73.59;101384.19;5015050;28;101930;-58
2022/10/25 01:49:42;;;;;;;60.47;57.08;;;;;;;15.80;73.70;101379.53;4997714;28;102364;-58
2022/10/25 01:52:08;;;;;;;60.17;56.65;;;;;;;15.79;73.52;101364.97;4995514;28;101970;-58
2022/10/25 01:54:36;;;;;;;57.05;53.92;;;;;;;15.80;73.59;101365.81;4994170;28;103941;-58
2022/10/25 01:57:14;;;;;;;63.58;59.97;;;;;;;15.81;73.62;101361.97;5011353;28;102000;-58
2022/10/25 02:00:03;;;;;;;61.80;58.28;;;;;;;15.80;73.30;101365.81;5013218;28;102182;-58
2022/10/25 02:02:41;;;;;;;52.17;49.05;;;;;;;15.81;73.45;101372.94;5009337;28;101972;-58
2022/10/25 02:05:15;;;;;;;63.80;60.28;;;;;;;15.80;73.41;101379.53;5013422;28;103811;-58
2022/10/25 02:07:45;;;;;;;56.22;52.95;;;;;;;15.80;73.44;101376.81;5013370;28;102045;-58
2022/10/25 02:10:18;;;;;;;60.67;57.33;;;;;;;15.80;73.17;101374.06;4994265;28;102299;-58
2022/10/25 02:12:55;;;;;;;59.05;55.55;;;;;;;15.79;73.61;101375.94;5025366;28;102631;-58
2022/10/25 02:15:26;;;;;;;58.85;55.47;;;;;;;15.80;73.08;101374.06;5034155;27;104036;-57
2022/10/25 02:17:59;;;;;;;62.85;59.30;;;;;;;15.81;73.79;101370.19;5023673;27;102425;-58
2022/10/25 02:20:29;;;;;;;60.00;56.50;;;;;;;15.81;73.49;101372.94;5031152;27;102502;-58
2022/10/25 02:22:59;;;;;;;59.83;56.47;;;;;;;15.81;73.31;101367.44;5033795;27;102347;-58
2022/10/25 02:25:30;;;;;;;60.85;57.33;;;;;;;15.81;73.43;101372.94;5033770;27;104002;-58
2022/10/25 02:28:00;;;;;;;65.53;61.80;;;;;;;15.80;73.30;101363.06;5033754;27;102645;-58
2022/10/25 02:30:28;;;;;;;63.28;59.60;;;;;;;15.82;73.52;101366.31;5031556;27;101913;-58
2022/10/25 02:32:55;;;;;;;63.78;60.17;;;;;;;15.81;73.46;101367.44;5034795;27;102266;-58
2022/10/25 02:35:26;;;;;;;63.05;59.45;;;;;;;15.82;73.54;101360.84;5018267;27;103953;-57
2022/10/25 02:37:53;;;;;;;60.80;57.25;;;;;;;15.82;73.41;101363.59;5030652;27;102559;-58
2022/10/25 02:40:20;;;;;;;60.55;56.92;;;;;;;15.81;73.72;101367.44;5034266;27;102292;-58
2022/10/25 02:42:46;;;;;;;63.05;59.30;;;;;;;15.81;73.73;101372.94;5032206;27;102360;-58
2022/10/25 02:45:13;;;;;;;73.07;68.95;;;;;;;15.82;73.68;101374.56;5036831;27;104054;-58
2022/10/25 02:47:39;;;;;;;65.57;61.83;;;;;;;15.81;73.51;101379.25;5022028;27;102204;-57
2022/10/25 02:50:08;;;;;;;63.97;60.20;;;;;;;15.82;73.42;101382.78;5009916;28;101996;-58
2022/10/25 02:52:36;;;;;;;67.55;63.58;;;;;;;15.82;73.38;101385.53;5020294;27;102146;-58
2022/10/25 02:55:03;;;;;;;68.85;64.95;;;;;;;15.82;73.75;101374.56;5035450;27;103868;-58
2022/10/25 02:57:32;;;;;;;68.20;64.03;;;;;;;15.82;73.56;101375.38;5010188;27;102191;-58
2022/10/25 02:59:58;;;;;;;67.13;63.30;;;;;;;15.83;73.45;101381.69;4996734;28;102190;-59
2022/10/25 03:02:25;;;;;;;60.47;56.97;;;;;;;15.83;73.57;101378.94;5002312;28;102165;-58
2022/10/25 03:04:51;;;;;;;67.47;63.47;;;;;;;15.83;73.87;101387.16;4996361;28;103673;-58
2022/10/25 03:07:19;;;;;;;62.83;59.13;;;;;;;15.82;73.61;101377.31;5013547;28;102273;-58
2022/10/25 03:09:46;;;;;;;68.13;64.25;;;;;;;15.83;73.46;101376.19;5015744;28;102394;-58
2022/10/25 03:12:14;;;;;;;67.15;63.28;;;;;;;15.84;73.49;101383.34;5007892;28;102538;-58
2022/10/25 03:14:41;;;;;;;69.10;65.25;;;;;;;15.82;73.73;101380.88;5025389;27;103953;-58
2022/10/25 03:17:10;;;;;;;65.25;61.53;;;;;;;15.83;73.72;101376.19;5005354;28;102135;-58
2022/10/25 03:19:39;;;;;;;61.38;57.65;;;;;;;15.82;73.47;101360.84;5010655;28;102567;-57
2022/10/25 03:22:06;;;;;;;66.80;63.03;;;;;;;15.82;73.84;101363.59;5008241;28;102194;-58
2022/10/25 03:24:33;;;;;;;67.00;63.15;;;;;;;15.83;74.06;101359.72;4997085;28;104534;-58
2022/10/25 03:27:01;;;;;;;71.10;67.18;;;;;;;15.83;73.56;101365.22;5008594;28;102301;-58
2022/10/25 03:29:27;;;;;;;66.22;62.47;;;;;;;15.83;73.78;101365.22;5004817;28;102364;-58
2022/10/25 03:31:53;;;;;;;65.05;61.20;;;;;;;15.83;73.90;101365.22;5004532;28;102310;-58
2022/10/25 03:34:20;;;;;;;63.40;59.78;;;;;;;15.82;73.90;101364.41;4995494;28;104004;-57
2022/10/25 03:36:46;;;;;;;63.97;60.25;;;;;;;15.83;74.24;101359.72;5017517;28;102285;-58
2022/10/25 03:39:13;;;;;;;58.83;55.15;;;;;;;15.82;73.54;101363.59;5029151;27;102271;-58
2022/10/25 03:41:41;;;;;;;70.70;66.68;;;;;;;15.82;73.93;101352.59;5024956;27;103265;-58
2022/10/25 03:44:07;;;;;;;63.35;59.58;;;;;;;15.82;73.60;101352.59;5015597;28;104124;-58
2022/10/25 03:46:34;;;;;;;62.22;58.55;;;;;;;15.82;73.45;101347.13;5016509;28;102211;-58
2022/10/25 03:49:00;;;;;;;68.53;64.70;;;;;;;15.83;73.86;101346.00;5033959;27;102481;-58
2022/10/25 03:51:26;;;;;;;65.65;61.92;;;;;;;15.81;73.83;101343.56;5018910;28;103036;-58
2022/10/25 03:53:53;;;;;;;64.95;61.22;;;;;;;15.83;73.60;101340.50;5035073;27;104030;-58
2022/10/25 03:56:19;;;;;;;67.10;63.25;;;;;;;15.82;73.47;101336.97;5003349;27;101944;-58
2022/10/25 03:58:47;;;;;;;65.78;61.92;;;;;;;15.82;74.03;101336.13;5012269;28;102164;-58
2022/10/25 04:01:13;;;;;;;66.18;62.22;;;;;;;15.82;73.88;101330.66;5017625;28;102706;-58
2022/10/25 04:03:42;;;;;;;68.95;65.05;;;;;;;15.82;73.70;101336.13;5028107;28;104767;-58
2022/10/25 04:06:09;;;;;;;68.28;64.25;;;;;;;15.82;73.88;101325.97;5035783;27;102095;-58
2022/10/25 04:08:38;;;;;;;59.58;56.10;;;;;;;15.82;73.83;101319.66;5025133;27;102369;-58
2022/10/25 04:11:08;;;;;;;63.88;60.30;;;;;;;15.81;73.75;101318.88;5018582;27;103767;-58
2022/10/25 04:13:35;;;;;;;70.47;66.47;;;;;;;15.82;74.25;101319.66;5035481;27;104032;-58
2022/10/25 04:16:06;;;;;;;64.13;60.25;;;;;;;15.81;73.66;101318.88;5036426;27;102196;-58
2022/10/25 04:18:34;;;;;;;67.82;63.78;;;;;;;15.83;73.71;101315.81;5031160;27;102435;-58
2022/10/25 04:21:06;;;;;;;74.68;70.47;;;;;;;15.82;73.83;101315.00;5027364;27;102343;-58
2022/10/25 04:23:33;;;;;;;67.75;63.80;;;;;;;15.82;74.20;101319.66;5035525;27;104168;-58
2022/10/25 04:26:00;;;;;;;68.85;64.88;;;;;;;15.81;74.07;101310.63;5035226;27;104947;-58
2022/10/25 04:28:26;;;;;;;68.75;64.85;;;;;;;15.81;73.98;101302.41;5035567;27;102121;-58
2022/10/25 04:30:53;;;;;;;67.88;63.92;;;;;;;15.82;74.16;101304.03;5029547;27;102142;-58
2022/10/25 04:33:21;;;;;;;71.05;66.72;;;;;;;15.83;74.02;101310.31;5034608;27;103941;-58
2022/10/25 04:35:55;;;;;;;68.07;64.20;;;;;;;15.82;74.21;101294.97;5025978;27;102571;-58
2022/10/25 04:38:21;;;;;;;64.10;60.38;;;;;;;15.82;74.34;101298.53;5016550;28;102124;-58
2022/10/25 04:40:55;;;;;;;67.22;63.35;;;;;;;15.83;73.78;101302.94;5021790;28;102346;-58
2022/10/25 04:43:22;;;;;;;68.18;64.13;;;;;;;15.83;74.15;101299.34;5033955;27;103923;-58
2022/10/25 04:45:48;;;;;;;68.47;64.53;;;;;;;15.82;74.12;101293.03;5035545;27;102347;-58
2022/10/25 04:48:15;;;;;;;69.35;65.47;;;;;;;15.83;74.01;101291.09;5020786;27;102038;-58
2022/10/25 04:50:43;;;;;;;73.47;69.28;;;;;;;15.82;74.20;101293.03;5028534;27;102192;-58
2022/10/25 04:53:10;;;;;;;61.88;58.22;;;;;;;15.83;73.99;101288.38;5030306;27;104007;-58
2022/10/25 04:55:37;;;;;;;65.43;61.63;;;;;;;15.83;73.91;101293.84;5035668;27;102521;-58
2022/10/25 04:58:04;;;;;;;62.28;58.63;;;;;;;15.83;74.25;101288.38;5031605;27;102395;-58
2022/10/25 05:00:30;;;;;;;65.80;62.03;;;;;;;15.83;74.19;101289.22;5028856;27;102284;-58
2022/10/25 05:02:57;;;;;;;66.28;62.28;;;;;;;15.83;74.05;101294.69;5014671;28;104266;-58
2022/10/25 05:05:24;;;;;;;67.57;63.65;;;;;;;15.83;74.11;101296.59;5015244;28;101967;-58
2022/10/25 05:07:52;;;;;;;66.68;62.65;;;;;;;15.84;73.69;101290.03;5015442;28;102404;-58
2022/10/25 05:10:19;;;;;;;67.67;63.67;;;;;;;15.84;74.01;101292.75;5016347;28;102099;-58
2022/10/25 05:12:46;;;;;;;74.13;69.82;;;;;;;15.85;74.06;101297.13;5031731;27;103834;-58
2022/10/25 05:15:12;;;;;;;76.20;71.70;;;;;;;15.84;73.95;101284.53;5031107;27;102504;-58
2022/10/25 05:17:38;;;;;;;72.38;68.18;;;;;;;15.84;73.90;101296.31;5030298;27;104039;-58
2022/10/25 05:20:06;;;;;;;75.68;71.43;;;;;;;15.85;74.10;101297.13;5021988;28;102759;-58
2022/10/25 05:22:33;;;;;;;70.40;66.13;;;;;;;15.84;73.92;101290.03;5032228;27;103855;-58
2022/10/25 05:25:01;;;;;;;68.97;65.00;;;;;;;15.85;73.83;101297.13;5033584;27;102664;-58
2022/10/25 05:27:28;;;;;;;68.25;64.30;;;;;;;15.84;74.17;101301.81;5032157;27;102791;-58
2022/10/25 05:29:54;;;;;;;70.97;66.82;;;;;;;15.84;73.95;101295.50;5015974;27;102335;-58
2022/10/25 05:32:21;;;;;;;65.47;61.58;;;;;;;15.85;73.78;101302.63;5013464;28;103949;-57
2022/10/25 05:34:47;;;;;;;72.30;68.18;;;;;;;15.84;74.34;101301.81;5015647;28;102430;-58
2022/10/25 05:37:14;;;;;;;71.03;66.75;;;;;;;15.85;74.35;101302.63;5023295;28;102357;-58
2022/10/25 05:39:41;;;;;;;73.47;69.32;;;;;;;15.85;74.13;101308.13;5027435;27;102238;-58
2022/10/25 05:42:08;;;;;;;74.80;70.60;;;;;;;15.85;73.97;101310.84;5025977;27;104867;-58
2022/10/25 05:44:35;;;;;;;72.50;68.27;;;;;;;15.84;74.24;101306.50;5027263;27;103673;-58
2022/10/25 05:47:02;;;;;;;73.90;69.70;;;;;;;15.84;74.21;101306.50;5021703;27;102066;-58
2022/10/25 05:49:29;;;;;;;74.65;70.45;;;;;;;15.85;73.95;101311.69;5023022;28;102301;-58
2022/10/25 05:51:55;;;;;;;69.72;65.45;;;;;;;15.85;73.98;101308.13;5023562;27;103916;-58
2022/10/25 05:54:23;;;;;;;71.78;67.40;;;;;;;15.86;74.39;101304.25;5007549;28;102246;-58
2022/10/25 05:56:49;;;;;;;71.43;67.28;;;;;;;15.85;73.97;101311.69;5010998;28;101979;-58
2022/10/25 05:59:17;;;;;;;73.18;68.80;;;;;;;15.86;74.39;101305.06;5014530;28;102408;-58
2022/10/25 06:01:45;;;;;;;68.15;64.18;;;;;;;15.85;74.26;101300.69;5013283;28;103832;-58
2022/10/25 06:04:12;;;;;;;68.25;64.30;;;;;;;15.85;74.28;101306.19;4996227;28;102002;-58
2022/10/25 06:06:40;;;;;;;67.10;62.97;;;;;;;15.86;74.08;101304.25;5007476;28;102465;-58
2022/10/25 06:09:07;;;;;;;68.53;64.45;;;;;;;15.85;74.55;101308.13;5015120;28;102194;-58
2022/10/25 06:11:35;;;;;;;74.85;70.60;;;;;;;15.86;74.23;101309.75;5014471;28;103877;-58
2022/10/25 06:14:03;;;;;;;70.28;66.03;;;;;;;15.86;74.57;101305.06;5018325;28;101949;-58
2022/10/25 06:16:31;;;;;;;72.03;67.90;;;;;;;15.86;74.75;101309.75;5028907;28;102257;-58
2022/10/25 06:19:02;;;;;;;67.43;63.47;;;;;;;15.87;74.64;101311.41;5038405;27;102135;-58
2022/10/25 06:21:29;;;;;;;69.22;65.20;;;;;;;15.87;74.80;101311.41;5025624;27;104522;-58
2022/10/25 06:23:58;;;;;;;68.15;64.18;;;;;;;15.87;74.46;101314.16;5032366;27;102143;-58
2022/10/25 06:26:26;;;;;;;76.78;72.35;;;;;;;15.86;74.42;101305.06;5028378;27;102135;-58
2022/10/25 06:28:55;;;;;;;70.53;66.40;;;;;;;15.87;74.90;101314.16;5023424;28;103215;-58
2022/10/25 06:31:22;;;;;;;64.30;60.35;;;;;;;15.87;74.75;101305.91;5033018;28;103427;-58
2022/10/25 06:33:52;;;;;;;66.15;62.22;;;;;;;15.87;74.88;101311.41;5023311;27;105088;-58
2022/10/25 06:36:20;;;;;;;66.40;62.58;;;;;;;15.86;74.83;101307.00;5023211;27;102371;-58
2022/10/25 06:38:47;;;;;;;69.53;65.37;;;;;;;15.87;75.01;101311.41;5031953;28;102111;-58
2022/10/25 06:41:16;;;;;;;69.78;65.55;;;;;;;15.87;74.88;101305.91;5025513;27;104015;-58
2022/10/25 06:43:43;;;;;;;64.88;60.92;;;;;;;15.87;74.98;101305.91;5032051;27;102321;-58
2022/10/25 06:46:19;;;;;;;68.10;64.10;;;;;;;15.88;74.61;101302.03;5034634;27;102401;-58
2022/10/25 06:48:46;;;;;;;65.35;61.40;;;;;;;15.88;75.01;101302.03;5025195;27;102376;-58
2022/10/25 06:51:14;;;;;;;74.30;69.57;;;;;;;15.88;75.08;101303.97;5030279;27;105853;-58
2022/10/25 06:53:41;;;;;;;64.95;61.13;;;;;;;15.89;74.78;101298.19;5024385;27;102494;-58
2022/10/25 06:56:09;;;;;;;66.20;62.13;;;;;;;15.90;74.86;101294.31;5034364;27;102364;-58
2022/10/25 06:58:37;;;;;;;75.22;70.97;;;;;;;15.89;75.28;101298.19;5030866;27;102827;-58
2022/10/25 07:01:05;;;;;;;63.50;59.55;;;;;;;15.89;75.08;101291.88;5034807;27;104147;-58
2022/10/25 07:03:35;;;;;;;75.63;71.20;;;;;;;15.90;75.24;101288.03;5030813;27;102439;-58
2022/10/25 07:06:08;;;;;;;77.40;72.82;;;;;;;15.89;75.66;101281.72;5028297;27;102312;-58
2022/10/25 07:08:38;;;;;;;75.50;70.78;;;;;;;15.90;76.30;101288.03;5034611;27;102754;-58
2022/10/25 07:11:13;;;;;;;76.53;71.65;;;;;;;15.91;76.32;101281.44;5031980;27;103930;-58
2022/10/25 07:13:40;;;;;;;69.15;64.88;;;;;;;15.90;76.18;101280.59;5020673;27;102033;-58
2022/10/25 07:16:08;;;;;;;80.00;74.85;;;;;;;15.92;76.67;101281.13;5020413;27;102048;-58
2022/10/25 07:18:38;;;;;;;82.95;77.93;;;;;;;15.91;76.08;101285.00;5037769;27;102476;-58
2022/10/25 07:21:06;;;;;;;85.45;80.18;;;;;;;15.91;76.07;101285.00;5027732;27;103953;-58
2022/10/25 07:23:33;;;;;;;81.82;76.97;;;;;;;15.93;76.32;101291.00;5030971;28;102451;-58
2022/10/25 07:26:03;;;;;;;82.60;77.68;;;;;;;15.94;76.45;101289.06;5028329;27;102751;-58
2022/10/25 07:28:30;;;;;;;83.33;78.43;;;;;;;15.94;76.37;101286.31;5032111;27;102491;-58
2022/10/25 07:30:56;;;;;;;79.95;75.30;;;;;;;15.95;76.39;101285.22;5023386;27;103965;-58
2022/10/25 07:33:23;;;;;;;88.38;83.05;;;;;;;15.92;76.21;101281.13;5028067;27;102496;-58
2022/10/25 07:35:50;;;;;;;77.72;72.93;;;;;;;15.93;76.37;101277.28;5022144;27;102156;-58
2022/10/25 07:38:17;;;;;;;82.53;77.35;;;;;;;15.94;76.60;101273.44;5028147;27;102699;-58
2022/10/25 07:40:44;;;;;;;84.30;79.05;;;;;;;15.95;76.12;101279.75;5029285;27;103713;-58
2022/10/25 07:43:12;;;;;;;87.85;82.63;;;;;;;15.95;76.41;101274.25;5028844;27;102588;-58
2022/10/25 07:45:39;;;;;;;70.65;65.97;;;;;;;15.93;75.94;101277.28;5023902;27;102636;-58
2022/10/25 07:48:06;;;;;;;82.65;77.75;;;;;;;15.95;76.15;101274.25;5025171;27;102463;-58
2022/10/25 07:50:34;;;;;;;77.63;73.13;;;;;;;15.93;75.60;101276.47;5031223;27;104016;-58
2022/10/25 07:53:00;;;;;;;84.43;79.13;;;;;;;15.94;76.71;101262.44;5021128;27;102086;-58
2022/10/25 07:55:27;;;;;;;87.90;82.53;;;;;;;15.94;76.48;101262.44;5028417;27;102572;-58
2022/10/25 07:57:58;;;;;;;82.40;77.50;;;;;;;15.95;76.32;101261.34;5034176;27;102481;-57
2022/10/25 08:00:27;;;;;;;79.38;74.40;;;;;;;15.96;76.55;101260.22;5028167;27;104085;-58
2022/10/25 08:02:55;;;;;;;89.78;84.55;;;;;;;15.96;76.24;101254.72;5031337;27;102543;-58
2022/10/25 08:05:22;;;;;;;86.18;81.00;;;;;;;15.97;76.52;101256.34;5030505;27;102228;-58
2022/10/25 08:07:49;;;;;;;82.47;77.00;;;;;;;15.97;76.30;101250.84;5029131;27;102375;-58
2022/10/25 08:10:18;;;;;;;86.63;81.75;;;;;;;15.97;76.05;101245.38;5026959;27;103919;-58
2022/10/25 08:12:46;;;;;;;84.97;79.85;;;;;;;15.98;75.96;101240.72;5032334;27;102471;-58
2022/10/25 08:15:13;;;;;;;79.43;74.72;;;;;;;15.98;76.17;101241.53;5029841;27;102474;-58
2022/10/25 08:17:40;;;;;;;80.68;75.97;;;;;;;16.00;76.18;101233.81;5025146;27;102444;-58
2022/10/25 08:20:08;;;;;;;89.78;84.57;;;;;;;15.99;75.81;101232.19;5012748;28;103937;-58
2022/10/25 08:22:35;;;;;;;93.13;87.43;;;;;;;16.00;76.33;101236.53;5005969;27;102326;-58
2022/10/25 08:25:03;;;;;;;85.18;79.95;;;;;;;16.01;75.98;101238.19;5003943;28;102265;-58
2022/10/25 08:27:30;;;;;;;79.95;75.28;;;;;;;16.04;75.73;101245.81;5029551;27;102283;-59
2022/10/25 08:29:58;;;;;;;82.13;76.97;;;;;;;16.04;75.76;101245.81;5027502;27;104389;-58
2022/10/25 08:32:24;;;;;;;84.55;79.65;;;;;;;16.05;75.99;101235.69;5025066;27;102046;-58
2022/10/25 08:34:52;;;;;;;88.60;83.50;;;;;;;16.06;76.08;101238.13;5022989;28;102391;-58
2022/10/25 08:37:19;;;;;;;84.50;79.60;;;;;;;16.06;75.99;101229.88;5033429;27;102552;-58
2022/10/25 08:39:45;;;;;;;78.45;73.75;;;;;;;16.07;75.63;101226.03;5032552;27;103951;-58
2022/10/25 08:42:21;;;;;;;82.90;78.15;;;;;;;16.08;75.69;101224.09;5019056;27;102365;-58
2022/10/25 08:44:55;;;;;;;84.85;79.90;;;;;;;16.09;76.00;101229.28;5031538;27;102197;-58
2022/10/25 08:47:28;;;;;;;80.88;76.18;;;;;;;16.10;75.40;101217.19;5033423;27;102300;-58
2022/10/25 08:50:01;;;;;;;86.85;81.78;;;;;;;16.12;76.06;101218.81;5026359;27;103864;-58
2022/10/25 08:52:32;;;;;;;80.55;75.60;;;;;;;16.14;75.46;101216.59;5031875;27;102711;-58
2022/10/25 08:55:01;;;;;;;76.40;71.85;;;;;;;16.14;75.90;101216.59;5030790;27;102334;-58
2022/10/25 08:57:32;;;;;;;84.32;79.55;;;;;;;16.14;75.70;101205.63;5032414;27;102274;-58
2022/10/25 09:00:06;;;;;;;86.68;81.78;;;;;;;16.15;75.47;101218.22;5031093;27;104027;-58
2022/10/25 09:02:40;;;;;;;85.50;80.53;;;;;;;16.15;75.36;101220.97;5013711;28;102042;-58
2022/10/25 09:05:15;;;;;;;81.30;76.72;;;;;;;16.15;75.74;101216.28;5021521;27;102712;-58
2022/10/25 09:08:05;;;;;;;84.30;79.45;;;;;;;16.15;75.67;101224.53;5013495;28;102717;-58
2022/10/25 09:10:46;;;;;;;81.70;77.05;;;;;;;16.16;75.25;101219.88;5027190;27;103950;-59
2022/10/25 09:13:25;;;;;;;78.95;74.25;;;;;;;16.15;75.50;101213.56;5014341;27;102164;-58
2022/10/25 09:16:01;;;;;;;84.15;79.25;;;;;;;16.16;75.64;101203.41;5029817;28;102344;-58
2022/10/25 09:18:39;;;;;;;73.10;68.68;;;;;;;16.18;75.94;101199.22;5030896;27;102583;-58
2022/10/25 09:21:14;;;;;;;82.55;77.13;;;;;;;16.20;75.49;101201.69;5032123;27;104035;-58
2022/10/25 09:23:47;;;;;;;76.05;71.57;;;;;;;16.21;75.70;101195.09;5025677;27;102203;-58
2022/10/25 09:26:21;;;;;;;78.18;73.55;;;;;;;16.20;75.92;101183.28;5030856;27;102431;-58
2022/10/25 09:28:56;;;;;;;77.00;72.47;;;;;;;16.22;75.74;101191.22;5024458;27;102343;-58
2022/10/25 09:31:24;;;;;;;81.38;76.72;;;;;;;16.22;75.41;101196.72;5018184;27;103901;-58
2022/10/25 09:33:58;;;;;;;74.65;70.18;;;;;;;16.22;75.40;101186.53;5019220;27;102421;-58
2022/10/25 09:36:31;;;;;;;73.47;69.13;;;;;;;16.33;76.20;101187.19;5026126;27;104625;-56
2022/10/25 09:39:01;;;;;;;83.35;78.30;;;;;;;16.49;76.73;101180.34;5023158;27;102765;-56
2022/10/25 09:41:34;;;;;;;91.05;85.38;;;;;;;16.64;77.07;101172.97;5018263;28;103836;-55
2022/10/25 09:44:04;;;;;;;101.50;95.60;;;;;;;16.63;77.44;101168.59;5028067;27;102203;-56
2022/10/25 09:46:36;;;;;;;97.38;91.72;;;;;;;16.65;77.71;101169.09;5032587;27;101993;-56
2022/10/25 09:49:16;;;;;;;104.95;98.60;;;;;;;16.72;78.09;101173.09;5020665;28;102651;-57
2022/10/25 09:55:24;;;;;;;100.35;93.93;;;;;;;16.69;78.42;101170.94;5007365;28;102019;-55
2022/10/25 09:57:51;;;;;;;108.93;102.30;;;;;;;16.72;78.24;101161.28;5012605;28;103033;-55
2022/10/25 10:00:18;;;;;;;115.22;108.35;;;;;;;16.69;78.30;101154.44;5016352;28;102576;-55
2022/10/25 10:02:44;;;;;;;113.07;106.22;;;;;;;16.75;78.64;101155.22;5011019;28;103879;-59
2022/10/25 10:05:14;;;;;;;127.00;119.32;;;;;;;16.66;78.42;101146.00;5007035;28;102371;-59
2022/10/25 10:07:40;;;;;;;113.20;106.38;;;;;;;16.61;78.41;101140.59;5014703;28;102229;-59
2022/10/25 10:10:12;;;;;;;107.68;101.32;;;;;;;16.55;78.50;101145.34;5014358;28;103447;-59
2022/10/25 10:12:44;;;;;;;102.68;96.55;;;;;;;16.53;78.23;101147.59;5017586;28;104931;-59
2022/10/25 10:15:18;;;;;;;105.03;98.25;;;;;;;16.50;77.77;101142.72;5030579;27;102330;-59
2022/10/25 10:17:44;;;;;;;105.65;99.53;;;;;;;16.48;77.50;101134.78;5023455;27;102148;-59
2022/10/25 10:20:14;;;;;;;102.60;96.55;;;;;;;16.48;77.97;101136.69;5025040;28;104678;-59
2022/10/25 10:22:47;;;;;;;100.35;94.53;;;;;;;16.48;77.94;101129.28;5025392;28;104485;-59
2022/10/25 10:25:18;;;;;;;102.50;96.53;;;;;;;16.45;77.85;101135.38;5023275;27;102675;-58
2022/10/25 10:27:47;;;;;;;97.47;91.40;;;;;;;16.44;77.43;101128.22;5028063;27;102081;-58
2022/10/25 10:30:25;;;;;;;93.32;87.53;;;;;;;16.42;77.19;101127.72;5024112;27;102542;-58
2022/10/25 10:32:55;;;;;;;98.50;92.78;;;;;;;16.41;77.38;101128.84;5027331;27;103954;-58
2022/10/25 10:35:29;;;;;;;94.97;89.18;;;;;;;16.40;77.47;101127.19;5029005;27;102547;-58
2022/10/25 10:38:21;;;;;;;96.80;91.03;;;;;;;16.39;77.21;101125.56;5029430;27;102130;-58
2022/10/25 10:40:50;;;;;;;83.93;78.75;;;;;;;16.51;77.48;101123.16;5002164;28;103553;-53
2022/10/25 10:43:30;;;;;;;91.70;85.43;;;;;;;16.46;77.31;101108.72;5004111;28;103914;-53
2022/10/25 10:46:03;;;;;;;91.18;85.68;;;;;;;16.43;77.24;101107.38;5007928;28;102654;-53
2022/10/25 10:48:37;;;;;;;89.88;84.43;;;;;;;16.41;77.08;101108.78;5011733;28;102087;-53
2022/10/25 10:51:03;;;;;;;90.32;84.65;;;;;;;16.39;77.38;101103.59;5011997;28;102595;-53
2022/10/25 10:53:31;;;;;;;93.78;87.88;;;;;;;16.40;77.27;101104.41;5013730;28;103985;-53
2022/10/25 10:56:01;;;;;;;81.28;75.88;;;;;;;16.38;77.34;101112.97;5014882;28;102392;-53
2022/10/25 10:58:30;;;;;;;82.63;77.53;;;;;;;16.37;76.86;101103.06;5013791;28;102572;-53
2022/10/25 11:01:01;;;;;;;83.05;77.80;;;;;;;16.36;76.85;101109.69;5015654;28;102466;-53
2022/10/25 11:03:34;;;;;;;;;;;;;;;16.34;77.13;101104.50;5000120;28;104068;-53
2022/10/25 11:06:01;;;;;;;70.30;65.95;;;;;;;16.33;77.22;101100.13;5011643;28;102567;-53
2022/10/25 11:08:29;;;;;;;76.55;72.10;;;;;;;16.33;77.08;101093.81;5026053;27;102203;-53
2022/10/25 11:11:13;;;;;;;75.15;70.57;;;;;;;16.31;77.05;101085.06;5035481;27;102764;-53
2022/10/25 11:13:40;;;;;;;72.28;67.97;;;;;;;16.30;76.80;101087.00;5033544;27;104536;-53
2022/10/25 11:16:38;;;;;;;79.68;74.97;;;;;;;16.32;76.91;101086.69;5032935;27;102460;-53